createdAt,value
2022-12-29T00:00:21.889Z,15.27
2022-12-29T00:02:48.786Z,14.30
2022-12-29T00:05:18.001Z,12.43
2022-12-29T00:07:49.465Z,15.73
2022-12-29T00:10:16.260Z,12.80
2022-12-29T00:13:01.744Z,17.30
2022-12-29T00:15:37.893Z,15.97
2022-12-29T00:18:07.324Z,14.57
2022-12-29T00:20:55.849Z,11.07
2022-12-29T00:23:41.121Z,12.00
2022-12-29T00:26:33.005Z,14.73
2022-12-29T00:29:18.718Z,12.47
2022-12-29T00:32:03.961Z,14.67
2022-12-29T00:34:52.051Z,13.63
2022-12-29T00:37:38.782Z,14.63
2022-12-29T00:40:24.607Z,11.97
2022-12-29T00:43:10.134Z,12.67
2022-12-29T00:45:36.899Z,12.73
2022-12-29T00:48:03.821Z,15.50
2022-12-29T00:50:30.589Z,12.17
2022-12-29T00:52:59.481Z,13.43
2022-12-29T00:55:28.768Z,12.83
2022-12-29T00:57:55.630Z,14.63
2022-12-29T01:00:22.402Z,12.43
2022-12-29T01:02:49.236Z,13.00
2022-12-29T01:05:16.190Z,14.20
2022-12-29T01:07:45.150Z,12.13
2022-12-29T01:10:11.992Z,13.70
2022-12-29T01:12:42.014Z,13.07
2022-12-29T01:15:13.059Z,10.77
2022-12-29T01:17:42.270Z,13.33
2022-12-29T01:20:09.738Z,10.23
2022-12-29T01:22:36.596Z,12.93
2022-12-29T01:25:06.564Z,12.87
2022-12-29T01:27:34.037Z,11.17
2022-12-29T01:30:00.863Z,12.23
2022-12-29T01:32:27.714Z,11.60
2022-12-29T01:34:54.484Z,12.23
2022-12-29T01:37:24.447Z,12.60
2022-12-29T01:39:51.278Z,10.70
2022-12-29T01:42:19.292Z,11.03
2022-12-29T01:44:59.478Z,11.83
2022-12-29T01:47:37.607Z,12.20
2022-12-29T01:50:08.631Z,9.43
2022-12-29T01:52:36.191Z,10.63
2022-12-29T01:55:03.573Z,9.37
2022-12-29T01:57:33.702Z,12.53
2022-12-29T02:00:09.663Z,14.97
2022-12-29T02:02:41.973Z,11.90
2022-12-29T02:05:12.746Z,10.93
2022-12-29T02:07:46.071Z,11.33
2022-12-29T02:10:13.795Z,9.80
2022-12-29T02:12:41.051Z,9.43
2022-12-29T02:15:08.341Z,9.40
2022-12-29T02:17:35.241Z,10.27
2022-12-29T02:20:30.636Z,9.83
2022-12-29T02:23:24.878Z,9.87
2022-12-29T02:26:28.638Z,11.80
2022-12-29T02:29:15.980Z,8.70
2022-12-29T02:31:47.407Z,7.57
2022-12-29T02:34:32.553Z,11.23
2022-12-29T02:37:24.728Z,9.67
2022-12-29T02:40:13.205Z,9.20
2022-12-29T02:42:52.993Z,9.33
2022-12-29T02:45:39.496Z,10.10
2022-12-29T02:48:26.605Z,11.90
2022-12-29T02:51:07.311Z,8.60
2022-12-29T02:53:57.338Z,10.03
2022-12-29T02:56:24.194Z,11.47
2022-12-29T02:58:51.002Z,9.30
2022-12-29T03:01:33.163Z,7.30
2022-12-29T03:04:12.660Z,11.30
2022-12-29T03:07:16.861Z,9.17
2022-12-29T03:10:02.540Z,11.50
2022-12-29T03:13:06.138Z,9.33
2022-12-29T03:15:59.577Z,7.23
2022-12-29T03:18:35.605Z,10.37
2022-12-29T03:21:17.776Z,10.50
2022-12-29T03:23:48.487Z,9.83
2022-12-29T03:26:15.937Z,8.10
2022-12-29T03:28:50.863Z,8.83
2022-12-29T03:31:17.787Z,9.87
2022-12-29T03:33:44.802Z,7.53
2022-12-29T03:36:17.198Z,9.00
2022-12-29T03:38:54.724Z,9.17
2022-12-29T03:41:23.656Z,10.47
2022-12-29T03:43:52.900Z,9.20
2022-12-29T03:46:19.716Z,10.47
2022-12-29T03:48:47.627Z,9.80
2022-12-29T03:51:14.405Z,10.80
2022-12-29T03:53:41.512Z,8.57
2022-12-29T03:56:10.488Z,8.57
2022-12-29T03:58:37.352Z,8.23
2022-12-29T04:01:06.387Z,9.30
2022-12-29T04:03:33.261Z,8.83
2022-12-29T04:06:02.652Z,10.27
2022-12-29T04:08:29.467Z,11.90
2022-12-29T04:10:58.806Z,9.10
2022-12-29T04:13:25.598Z,10.70
2022-12-29T04:15:52.481Z,8.80
2022-12-29T04:18:21.419Z,11.07
2022-12-29T04:21:04.589Z,11.03
2022-12-29T04:23:32.700Z,11.20
2022-12-29T04:25:59.603Z,11.47
2022-12-29T04:28:26.507Z,10.77
2022-12-29T04:30:53.555Z,11.33
2022-12-29T04:33:20.545Z,13.10
2022-12-29T04:35:47.579Z,9.93
2022-12-29T04:38:14.533Z,13.63
2022-12-29T04:40:42.332Z,13.27
2022-12-29T04:43:09.178Z,13.03
2022-12-29T04:45:35.955Z,19.73
2022-12-29T04:48:02.790Z,13.00
2022-12-29T04:50:32.085Z,14.33
2022-12-29T04:53:01.030Z,15.37
2022-12-29T04:55:27.804Z,18.50
2022-12-29T04:57:56.717Z,15.37
2022-12-29T05:00:23.763Z,16.07
2022-12-29T05:02:50.741Z,19.00
2022-12-29T05:05:17.819Z,16.03
2022-12-29T05:07:47.117Z,16.03
2022-12-29T05:10:13.895Z,18.70
2022-12-29T05:12:41.315Z,14.07
2022-12-29T05:15:08.949Z,15.83
2022-12-29T05:17:35.819Z,14.90
2022-12-29T05:20:05.243Z,17.90
2022-12-29T05:22:34.409Z,15.17
2022-12-29T05:25:06.029Z,12.73
2022-12-29T05:27:32.843Z,17.27
2022-12-29T05:30:00.324Z,18.57
2022-12-29T05:32:29.676Z,14.03
2022-12-29T05:34:58.641Z,17.50
2022-12-29T05:37:25.397Z,18.17
2022-12-29T05:39:52.205Z,14.30
2022-12-29T05:42:19.000Z,16.80
2022-12-29T05:44:45.781Z,17.07
2022-12-29T05:47:12.588Z,15.43
2022-12-29T05:49:39.821Z,17.43
2022-12-29T05:52:06.599Z,17.83
2022-12-29T05:54:33.354Z,17.80
2022-12-29T05:57:00.144Z,15.07
2022-12-29T05:59:26.923Z,17.90
2022-12-29T06:01:53.921Z,17.23
2022-12-29T06:04:20.860Z,15.10
2022-12-29T06:06:47.708Z,16.83
2022-12-29T06:09:14.586Z,16.13
2022-12-29T06:11:41.414Z,16.93
2022-12-29T06:14:08.255Z,14.73
2022-12-29T06:16:35.847Z,15.03
2022-12-29T06:19:02.637Z,14.40
2022-12-29T06:21:31.636Z,14.33
2022-12-29T06:24:00.721Z,15.90
2022-12-29T06:26:27.534Z,16.63
2022-12-29T06:28:56.833Z,15.67
2022-12-29T06:31:23.692Z,13.90
2022-12-29T06:33:50.509Z,14.03
2022-12-29T06:36:19.588Z,12.37
2022-12-29T06:38:49.062Z,18.73
2022-12-29T06:41:15.817Z,15.10
2022-12-29T06:43:44.069Z,12.63
2022-12-29T06:46:10.902Z,14.30
2022-12-29T06:48:37.673Z,12.60
2022-12-29T06:51:04.587Z,14.63
2022-12-29T06:53:31.352Z,11.27
2022-12-29T06:55:58.132Z,13.30
2022-12-29T06:58:24.897Z,11.97
2022-12-29T07:00:51.724Z,12.87
2022-12-29T07:03:20.845Z,14.73
2022-12-29T07:05:47.735Z,15.13
2022-12-29T07:08:15.153Z,14.20
2022-12-29T07:10:49.059Z,13.37
2022-12-29T07:13:15.883Z,13.43
2022-12-29T07:15:44.880Z,19.27
2022-12-29T07:18:14.509Z,12.27
2022-12-29T07:20:41.295Z,11.50
2022-12-29T07:23:08.269Z,14.43
2022-12-29T07:25:36.932Z,15.83
2022-12-29T07:28:04.312Z,13.47
2022-12-29T07:30:31.118Z,10.93
2022-12-29T07:32:58.169Z,13.53
2022-12-29T07:35:27.162Z,13.33
2022-12-29T07:37:53.922Z,15.73
2022-12-29T07:40:20.698Z,15.97
2022-12-29T07:42:47.604Z,10.90
2022-12-29T07:45:14.462Z,12.17
2022-12-29T07:47:44.050Z,11.43
2022-12-29T07:50:13.381Z,11.47
2022-12-29T07:52:40.124Z,19.30
2022-12-29T07:55:07.470Z,11.67
2022-12-29T07:57:34.262Z,12.47
2022-12-29T08:00:01.070Z,12.30
2022-12-29T08:02:28.017Z,13.97
2022-12-29T08:04:54.946Z,12.60
2022-12-29T08:07:24.289Z,11.33
2022-12-29T08:09:51.090Z,11.97
2022-12-29T08:12:18.688Z,10.57
2022-12-29T08:14:45.473Z,12.00
2022-12-29T08:17:14.680Z,11.50
2022-12-29T08:19:42.344Z,11.67
2022-12-29T08:22:09.209Z,9.73
2022-12-29T08:24:40.754Z,12.50
2022-12-29T08:27:16.221Z,15.00
2022-12-29T08:29:51.359Z,14.57
2022-12-29T08:32:18.242Z,15.90
2022-12-29T08:34:45.185Z,10.60
2022-12-29T08:37:14.114Z,11.77
2022-12-29T08:39:43.028Z,14.37
2022-12-29T08:42:09.795Z,11.43
2022-12-29T08:44:39.109Z,14.67
2022-12-29T08:47:08.282Z,11.40
2022-12-29T08:49:35.027Z,11.03
2022-12-29T08:52:04.060Z,11.90
2022-12-29T08:54:33.426Z,12.70
2022-12-29T08:57:00.308Z,12.77
2022-12-29T08:59:32.365Z,13.57
2022-12-29T09:02:04.156Z,8.97
2022-12-29T09:04:31.275Z,13.90
2022-12-29T09:07:00.710Z,11.53
2022-12-29T09:09:27.510Z,9.47
2022-12-29T09:11:56.403Z,12.00
2022-12-29T09:14:23.160Z,11.90
2022-12-29T09:17:11.312Z,9.80
2022-12-29T09:19:40.649Z,8.53
2022-12-29T09:22:09.926Z,9.93
2022-12-29T09:24:39.181Z,10.87
2022-12-29T09:27:08.142Z,11.70
2022-12-29T09:29:34.903Z,18.40
2022-12-29T09:32:01.720Z,10.50
2022-12-29T09:34:30.891Z,13.23
2022-12-29T09:36:57.911Z,12.13
2022-12-29T09:39:27.060Z,10.00
2022-12-29T09:41:59.806Z,10.87
2022-12-29T09:44:51.216Z,13.27
2022-12-29T09:47:18.147Z,11.63
2022-12-29T09:49:47.107Z,11.17
2022-12-29T09:52:20.745Z,9.07
2022-12-29T09:55:00.475Z,10.53
2022-12-29T09:57:35.738Z,10.30
2022-12-29T10:00:06.152Z,11.17
2022-12-29T10:02:41.294Z,15.33
2022-12-29T10:05:18.400Z,11.27
2022-12-29T10:07:50.811Z,12.67
2022-12-29T10:10:34.025Z,11.47
2022-12-29T10:13:03.866Z,10.67
2022-12-29T10:15:45.611Z,18.53
2022-12-29T10:18:40.237Z,10.60
2022-12-29T10:21:09.135Z,9.07
2022-12-29T10:23:42.106Z,8.60
2022-12-29T10:26:13.301Z,9.50
2022-12-29T10:29:03.756Z,8.47
2022-12-29T10:31:53.913Z,9.73
2022-12-29T10:34:23.487Z,12.00
2022-12-29T10:36:52.333Z,13.13
2022-12-29T10:39:31.252Z,12.13
2022-12-29T10:42:22.034Z,13.20
2022-12-29T10:44:48.781Z,11.07
2022-12-29T10:47:20.424Z,15.27
2022-12-29T10:49:48.362Z,14.57
2022-12-29T10:52:15.982Z,10.83
2022-12-29T10:55:04.693Z,9.70
2022-12-29T10:57:47.366Z,11.33
2022-12-29T11:00:17.362Z,18.00
2022-12-29T11:02:50.476Z,10.97
2022-12-29T11:05:42.149Z,9.93
2022-12-29T11:08:20.455Z,11.80
2022-12-29T11:10:47.497Z,10.47
2022-12-29T11:13:19.734Z,11.43
2022-12-29T11:15:48.041Z,11.43
2022-12-29T11:18:37.059Z,12.23
2022-12-29T11:21:05.651Z,12.20
2022-12-29T11:23:40.009Z,15.93
2022-12-29T11:26:19.154Z,13.90
2022-12-29T11:29:09.534Z,11.17
2022-12-29T11:31:44.010Z,11.57
2022-12-29T11:34:19.903Z,10.70
2022-12-29T11:36:47.416Z,16.03
2022-12-29T11:39:52.560Z,14.07
2022-12-29T11:42:21.330Z,12.67
2022-12-29T11:44:48.831Z,13.27
2022-12-29T11:47:27.771Z,16.97
2022-12-29T11:50:00.206Z,12.57
2022-12-29T11:52:28.359Z,13.83
2022-12-29T11:54:55.297Z,14.00
2022-12-29T11:57:22.097Z,13.83
2022-12-29T11:59:57.007Z,11.87
2022-12-29T12:02:44.640Z,12.37
2022-12-29T12:05:53.435Z,12.33
2022-12-29T12:08:40.671Z,11.90
2022-12-29T12:11:17.932Z,10.33
2022-12-29T12:13:51.920Z,13.80
2022-12-29T12:16:25.007Z,10.33
2022-12-29T12:18:58.098Z,12.47
2022-12-29T12:21:30.640Z,11.87
2022-12-29T12:24:16.317Z,14.90
2022-12-29T12:26:49.358Z,13.80
2022-12-29T12:29:24.266Z,12.83
2022-12-29T12:31:56.548Z,13.73
2022-12-29T12:34:39.367Z,11.80
2022-12-29T12:37:40.239Z,11.13
2022-12-29T12:40:18.940Z,12.23
2022-12-29T12:42:56.408Z,11.77
2022-12-29T12:45:35.171Z,12.87
2022-12-29T12:48:28.078Z,14.80
2022-12-29T12:51:13.049Z,13.43
2022-12-29T12:53:39.954Z,12.30
2022-12-29T12:56:28.702Z,13.20
2022-12-29T12:59:09.126Z,9.13
2022-12-29T13:01:47.875Z,13.70
2022-12-29T13:04:39.249Z,18.67
2022-12-29T13:07:35.023Z,18.90
2022-12-29T13:10:03.897Z,21.10
2022-12-29T13:12:47.449Z,17.40
2022-12-29T13:15:32.529Z,16.47
2022-12-29T13:18:11.846Z,18.53
2022-12-29T13:20:52.331Z,14.13
2022-12-29T13:23:22.000Z,14.20
2022-12-29T13:25:50.981Z,11.00
2022-12-29T13:28:31.583Z,13.40
2022-12-29T13:31:07.615Z,18.27
2022-12-29T13:33:50.329Z,17.33
2022-12-29T13:36:44.088Z,16.90
2022-12-29T13:39:20.880Z,15.37
2022-12-29T13:41:55.485Z,16.33
2022-12-29T13:44:46.418Z,17.67
2022-12-29T13:47:36.678Z,13.07
2022-12-29T13:50:07.861Z,17.30
2022-12-29T13:52:54.272Z,14.30
2022-12-29T13:55:42.629Z,13.93
2022-12-29T13:58:18.618Z,12.50
2022-12-29T14:01:11.169Z,13.77
2022-12-29T14:03:53.088Z,13.83
2022-12-29T14:06:29.398Z,15.30
2022-12-29T14:08:58.493Z,16.53
2022-12-29T14:11:31.640Z,17.20
2022-12-29T14:13:58.480Z,17.67
2022-12-29T14:16:33.677Z,22.80
2022-12-29T14:19:18.777Z,15.90
2022-12-29T14:22:03.273Z,13.10
2022-12-29T14:24:38.689Z,15.77
2022-12-29T14:27:11.598Z,13.77
2022-12-29T14:29:41.249Z,13.90
2022-12-29T14:32:34.369Z,18.37
2022-12-29T14:35:02.262Z,17.33
2022-12-29T14:37:36.047Z,16.03
2022-12-29T14:40:26.166Z,20.07
2022-12-29T14:42:54.533Z,16.80
2022-12-29T14:45:21.333Z,11.70
2022-12-29T14:47:49.858Z,14.53
2022-12-29T14:50:19.168Z,11.27
2022-12-29T14:53:10.395Z,14.93
2022-12-29T14:55:48.226Z,15.33
2022-12-29T14:58:31.130Z,14.03
2022-12-29T15:01:03.031Z,13.43
2022-12-29T15:03:34.135Z,10.83
2022-12-29T15:06:14.071Z,12.13
2022-12-29T15:08:48.956Z,12.37
2022-12-29T15:11:16.971Z,12.80
2022-12-29T15:13:46.350Z,13.03
2022-12-29T15:16:31.418Z,14.40
2022-12-29T15:18:58.665Z,13.17
2022-12-29T15:21:27.797Z,13.47
2022-12-29T15:23:54.764Z,12.53
2022-12-29T15:26:25.115Z,14.10
2022-12-29T15:28:55.724Z,16.60
2022-12-29T15:31:30.553Z,15.17
2022-12-29T15:34:11.290Z,14.20
2022-12-29T15:36:44.413Z,16.93
2022-12-29T15:39:21.629Z,15.63
2022-12-29T15:42:00.947Z,13.77
2022-12-29T15:44:40.189Z,15.57
2022-12-29T15:47:08.055Z,12.17
2022-12-29T15:49:34.841Z,11.80
2022-12-29T15:52:06.128Z,14.20
2022-12-29T15:54:32.919Z,18.30
2022-12-29T15:56:59.724Z,13.40
2022-12-29T15:59:27.756Z,15.57
2022-12-29T16:01:57.923Z,12.50
2022-12-29T16:04:28.989Z,16.13
2022-12-29T16:06:59.506Z,15.77
2022-12-29T16:09:37.479Z,11.00
2022-12-29T16:12:09.014Z,12.83
2022-12-29T16:14:42.946Z,13.30
2022-12-29T16:17:16.691Z,13.53
2022-12-29T16:19:43.935Z,12.53
2022-12-29T16:22:19.167Z,13.93
2022-12-29T16:24:48.104Z,14.63
2022-12-29T16:27:20.596Z,15.73
2022-12-29T16:29:55.429Z,14.07
2022-12-29T16:32:34.782Z,19.97
2022-12-29T16:35:03.982Z,14.57
2022-12-29T16:37:32.195Z,18.37
2022-12-29T16:40:23.451Z,14.97
2022-12-29T16:42:52.213Z,15.23
2022-12-29T16:45:24.946Z,14.97
2022-12-29T16:48:09.187Z,15.10
2022-12-29T16:50:40.141Z,19.07
2022-12-29T16:53:06.967Z,17.43
2022-12-29T16:55:36.271Z,14.97
2022-12-29T16:58:05.524Z,16.83
2022-12-29T17:00:36.460Z,15.90
2022-12-29T17:03:05.554Z,15.57
2022-12-29T17:05:34.513Z,16.30
2022-12-29T17:08:02.161Z,15.30
2022-12-29T17:10:51.260Z,16.93
2022-12-29T17:13:18.074Z,14.60
2022-12-29T17:15:44.944Z,15.60
2022-12-29T17:18:14.450Z,14.33
2022-12-29T17:20:41.372Z,14.33
2022-12-29T17:23:18.631Z,22.47
2022-12-29T17:25:48.779Z,14.87
2022-12-29T17:28:30.838Z,19.13
2022-12-29T17:31:05.760Z,15.77
2022-12-29T17:33:42.775Z,17.30
2022-12-29T17:36:12.138Z,14.17
2022-12-29T17:38:39.214Z,13.83
2022-12-29T17:41:12.910Z,13.80
2022-12-29T17:43:42.029Z,13.60
2022-12-29T17:46:11.198Z,16.17
2022-12-29T17:48:40.497Z,12.83
2022-12-29T17:51:08.873Z,14.77
2022-12-29T17:53:37.838Z,13.90
2022-12-29T17:56:04.690Z,19.27
2022-12-29T17:58:32.783Z,15.47
2022-12-29T18:01:00.833Z,14.47
2022-12-29T18:03:29.147Z,15.83
2022-12-29T18:05:56.204Z,17.10
2022-12-29T18:08:23.492Z,21.27
2022-12-29T18:10:55.429Z,16.87
2022-12-29T18:13:26.414Z,19.17
2022-12-29T18:15:55.191Z,14.80
2022-12-29T18:18:23.690Z,17.87
2022-12-29T18:20:54.316Z,16.83
2022-12-29T18:23:26.853Z,16.30
2022-12-29T18:26:06.932Z,14.53
2022-12-29T18:28:33.775Z,18.80
2022-12-29T18:31:01.340Z,18.37
2022-12-29T18:33:28.324Z,17.83
2022-12-29T18:36:09.711Z,23.67
2022-12-29T18:38:36.490Z,18.63
2022-12-29T18:41:03.324Z,19.00
2022-12-29T18:43:30.157Z,17.00
2022-12-29T18:45:57.165Z,17.33
2022-12-29T18:48:26.439Z,17.40
2022-12-29T18:50:53.413Z,20.53
2022-12-29T18:53:22.270Z,18.07
2022-12-29T18:55:51.577Z,18.53
2022-12-29T18:58:18.379Z,20.60
2022-12-29T19:00:45.335Z,20.23
2022-12-29T19:03:18.767Z,18.20
2022-12-29T19:05:46.456Z,17.90
2022-12-29T19:08:15.874Z,18.57
2022-12-29T19:10:43.192Z,20.57
2022-12-29T19:13:20.904Z,20.87
2022-12-29T19:15:50.222Z,16.43
2022-12-29T19:21:10.112Z,17.47
2022-12-29T19:23:36.933Z,16.47
2022-12-29T19:26:03.800Z,22.07
2022-12-29T19:28:32.830Z,17.27
2022-12-29T19:31:00.884Z,20.53
2022-12-29T19:33:28.290Z,17.40
2022-12-29T19:36:01.536Z,16.30
2022-12-29T19:38:28.587Z,17.53
2022-12-29T19:40:55.437Z,15.60
2022-12-29T19:43:22.231Z,20.53
2022-12-29T19:45:49.220Z,20.50
2022-12-29T19:48:20.861Z,16.10
2022-12-29T19:50:47.884Z,18.07
2022-12-29T19:53:14.916Z,17.17
2022-12-29T19:55:45.320Z,21.03
2022-12-29T19:58:14.741Z,17.80
2022-12-29T20:00:43.954Z,22.60
2022-12-29T20:03:11.288Z,20.43
2022-12-29T20:05:39.006Z,17.47
2022-12-29T20:08:05.863Z,19.30
2022-12-29T20:10:35.148Z,15.33
2022-12-29T20:13:06.206Z,19.47
2022-12-29T20:15:32.984Z,18.13
2022-12-29T20:18:13.027Z,19.00
2022-12-29T20:20:43.410Z,18.70
2022-12-29T20:23:13.240Z,16.47
2022-12-29T20:25:45.162Z,16.23
2022-12-29T20:28:15.546Z,19.90
2022-12-29T20:30:42.358Z,19.57
2022-12-29T20:33:09.280Z,19.17
2022-12-29T20:35:36.630Z,16.03
2022-12-29T20:38:03.800Z,16.37
2022-12-29T20:40:30.655Z,20.03
2022-12-29T20:42:59.868Z,18.83
2022-12-29T20:45:28.961Z,20.87
2022-12-29T20:47:55.786Z,18.37
2022-12-29T20:50:22.579Z,21.10
2022-12-29T20:52:50.059Z,20.40
2022-12-29T20:55:19.310Z,19.13
2022-12-29T21:00:35.399Z,17.83
2022-12-29T21:03:04.474Z,19.80
2022-12-29T21:05:31.465Z,18.47
2022-12-29T21:07:59.759Z,19.57
2022-12-29T21:10:26.732Z,20.17
2022-12-29T21:12:53.631Z,19.23
2022-12-29T21:15:20.494Z,19.33
2022-12-29T21:17:47.272Z,17.80
2022-12-29T21:20:30.201Z,18.90
2022-12-29T21:23:00.872Z,18.20
2022-12-29T21:25:37.055Z,20.47
2022-12-29T21:28:05.382Z,22.03
2022-12-29T21:30:32.655Z,17.70
2022-12-29T21:33:02.068Z,19.67
2022-12-29T21:35:28.960Z,20.47
2022-12-29T21:37:57.883Z,18.73
2022-12-29T21:40:24.850Z,19.77
2022-12-29T21:42:53.789Z,17.37
2022-12-29T21:45:26.575Z,16.03
2022-12-29T21:48:25.034Z,19.57
2022-12-29T21:51:14.352Z,19.73
2022-12-29T21:53:44.879Z,17.13
2022-12-29T21:56:16.639Z,21.00
2022-12-29T21:59:08.807Z,18.60
2022-12-29T22:01:57.360Z,16.80
2022-12-29T22:04:43.719Z,16.67
2022-12-29T22:07:29.905Z,17.63
2022-12-29T22:10:15.343Z,15.90
2022-12-29T22:13:00.983Z,16.67
2022-12-29T22:15:29.774Z,17.87
2022-12-29T22:18:02.284Z,17.37
2022-12-29T22:20:33.769Z,16.90
2022-12-29T22:23:03.174Z,16.80
2022-12-29T22:25:34.630Z,16.30
2022-12-29T22:28:03.727Z,22.57
2022-12-29T22:30:30.624Z,18.17
2022-12-29T22:32:58.000Z,17.77
2022-12-29T22:35:25.168Z,19.43
2022-12-29T22:37:52.015Z,17.73
2022-12-29T22:40:21.041Z,18.47
2022-12-29T22:42:47.840Z,15.13
2022-12-29T22:45:14.624Z,17.23
2022-12-29T22:47:43.971Z,16.53
2022-12-29T22:50:10.791Z,15.90
2022-12-29T22:52:40.087Z,17.23
2022-12-29T22:55:08.501Z,20.03
2022-12-29T22:57:37.584Z,16.30
2022-12-29T23:00:11.188Z,13.63
2022-12-29T23:02:38.061Z,18.20
2022-12-29T23:05:06.240Z,17.30
2022-12-29T23:07:34.227Z,16.90
2022-12-29T23:10:01.171Z,15.43
2022-12-29T23:12:33.135Z,14.67
2022-12-29T23:14:59.954Z,16.77
2022-12-29T23:17:29.099Z,16.50
2022-12-29T23:19:55.908Z,17.07
2022-12-29T23:22:23.238Z,20.50
2022-12-29T23:24:50.039Z,15.70
2022-12-29T23:27:19.357Z,16.63
2022-12-29T23:29:46.112Z,14.47
2022-12-29T23:32:15.662Z,15.77
2022-12-29T23:34:42.425Z,17.10
2022-12-29T23:37:09.203Z,15.40
2022-12-29T23:39:40.769Z,14.13
2022-12-29T23:42:11.331Z,18.57
2022-12-29T23:44:38.085Z,17.83
2022-12-29T23:47:04.972Z,15.70
2022-12-29T23:49:34.020Z,15.43
2022-12-29T23:52:03.303Z,16.03
2022-12-29T23:54:32.329Z,16.10
2022-12-29T23:56:59.085Z,16.70
2022-12-29T23:59:25.982Z,15.73
